Time;durP1;ratioP1;P1;durP2;ratioP2;P2;SDS_P1;SDS_P2;PMS_P1;PMS_P2;Temp;Humidity;BMP_temperature;BMP_pressure;BME280_temperature;BME280_humidity;BME280_pressure;Samples;Min_cycle;Max_cycle;Signal;HPM_P1;HPM_P2
2023/03/02 00:01:34;;;;;;;22.70;14.27;;;1.20;99.90;;;;;;5052236;28;20470;-48
2023/03/02 00:04:04;;;;;;;18.10;12.00;;;1.30;99.90;;;;;;5050581;28;20537;-49
2023/03/02 00:06:32;;;;;;;20.37;14.37;;;0.90;99.90;;;;;;5052725;28;20548;-49
2023/03/02 00:09:00;;;;;;;21.70;13.00;;;0.80;99.90;;;;;;5052300;28;20604;-49
2023/03/02 00:11:28;;;;;;;17.60;12.83;;;0.80;99.90;;;;;;5053276;28;20473;-49
2023/03/02 00:13:55;;;;;;;18.70;13.67;;;1.20;99.90;;;;;;5053451;28;20529;-48
2023/03/02 00:16:22;;;;;;;19.23;13.87;;;1.10;99.90;;;;;;5052953;28;20524;-48
2023/03/02 00:18:49;;;;;;;16.20;12.23;;;1.10;99.90;;;;;;5053292;28;20883;-49
2023/03/02 00:21:17;;;;;;;19.83;14.03;;;1.30;99.90;;;;;;5053326;28;20546;-49
2023/03/02 00:23:44;;;;;;;21.73;14.60;;;1.40;99.90;;;;;;5052729;28;21007;-49
2023/03/02 00:26:11;;;;;;;18.47;13.47;;;1.40;99.90;;;;;;5053132;28;20448;-49
2023/03/02 00:28:38;;;;;;;18.23;13.37;;;1.20;99.90;;;;;;5053330;28;20563;-48
2023/03/02 00:31:06;;;;;;;18.20;13.70;;;1.40;99.90;;;;;;5053330;28;21083;-51
2023/03/02 00:33:33;;;;;;;17.80;12.27;;;1.60;99.90;;;;;;5052884;28;20524;-49
2023/03/02 00:36:00;;;;;;;18.50;13.47;;;1.70;99.90;;;;;;5053126;28;21078;-48
2023/03/02 00:38:28;;;;;;;21.00;12.40;;;1.70;99.90;;;;;;5047094;28;20546;-48
2023/03/02 00:40:56;;;;;;;17.67;14.23;;;1.50;99.90;;;;;;5033126;28;21157;-48
2023/03/02 00:43:26;;;;;;;22.20;16.03;;;1.40;99.90;;;;;;5051475;28;20446;-49
2023/03/02 00:45:53;;;;;;;21.33;13.90;;;1.50;99.90;;;;;;5052298;28;20442;-48
2023/03/02 00:48:20;;;;;;;19.70;14.53;;;1.60;99.90;;;;;;5052489;28;20534;-50
2023/03/02 00:50:47;;;;;;;20.17;14.37;;;1.60;99.90;;;;;;5052649;28;20552;-48
2023/03/02 00:53:14;;;;;;;20.07;16.00;;;1.70;99.90;;;;;;5039094;28;20636;-51
2023/03/02 00:55:42;;;;;;;19.80;15.80;;;1.60;99.90;;;;;;5048261;28;20521;-49
2023/03/02 00:58:09;;;;;;;19.10;14.00;;;1.50;99.90;;;;;;5050888;28;20525;-47
2023/03/02 01:00:37;;;;;;;19.57;14.33;;;1.40;99.90;;;;;;5035660;28;20554;-48
2023/03/02 01:03:04;;;;;;;17.87;13.37;;;1.50;99.90;;;;;;5050608;28;20549;-48
2023/03/02 01:05:31;;;;;;;17.43;13.57;;;1.50;99.90;;;;;;5051045;28;20545;-49
2023/03/02 01:07:58;;;;;;;17.87;12.27;;;1.60;99.90;;;;;;5051651;28;21035;-48
2023/03/02 01:10:25;;;;;;;16.33;13.20;;;1.70;99.90;;;;;;5051178;28;20557;-48
2023/03/02 01:12:53;;;;;;;18.20;13.37;;;1.40;99.90;;;;;;5051614;28;20529;-49
2023/03/02 01:15:20;;;;;;;22.07;14.17;;;1.10;99.90;;;;;;5051924;28;21019;-48
2023/03/02 01:17:47;;;;;;;19.63;13.83;;;1.20;99.90;;;;;;5052134;28;20527;-49
2023/03/02 01:20:14;;;;;;;17.97;13.93;;;1.50;99.90;;;;;;5052253;28;20536;-49
2023/03/02 01:22:42;;;;;;;19.37;13.80;;;1.40;99.90;;;;;;5052038;28;20446;-49
2023/03/02 01:25:09;;;;;;;22.17;14.17;;;1.00;99.90;;;;;;5052327;28;20446;-48
2023/03/02 01:27:36;;;;;;;20.50;13.97;;;0.70;99.90;;;;;;5051989;28;20530;-49
2023/03/02 01:30:06;;;;;;;24.63;14.93;;;1.00;99.90;;;;;;5051629;28;20564;-49
2023/03/02 01:32:33;;;;;;;23.63;15.00;;;1.30;99.90;;;;;;5052144;28;20532;-48
2023/03/02 01:35:00;;;;;;;20.63;15.07;;;1.10;99.90;;;;;;5051798;28;21032;-48
2023/03/02 01:37:27;;;;;;;20.60;14.50;;;0.50;99.90;;;;;;5051972;28;21031;-48
2023/03/02 01:39:54;;;;;;;24.90;15.73;;;0.30;99.90;;;;;;5051632;28;20517;-49
2023/03/02 01:42:21;;;;;;;20.13;15.80;;;;;;;;;;5051847;28;20524;-50
2023/03/02 01:44:50;;;;;;;22.73;16.23;;;0.10;99.90;;;;;;5052098;28;20525;-48
2023/03/02 01:47:22;;;;;;;24.70;16.10;;;0.10;99.90;;;;;;5051757;28;20478;-50
2023/03/02 01:49:53;;;;;;;28.70;15.73;;;0.40;99.90;;;;;;5051434;28;20568;-50
2023/03/02 01:52:21;;;;;;;22.30;14.93;;;0.60;99.90;;;;;;5051033;28;20437;-48
2023/03/02 01:54:51;;;;;;;26.80;16.30;;;0.90;99.90;;;;;;5051861;28;20476;-48
2023/03/02 01:57:23;;;;;;;25.77;15.47;;;0.90;99.90;;;;;;5051622;28;20529;-48
2023/03/02 01:59:56;;;;;;;21.30;15.70;;;0.70;99.90;;;;;;5051603;28;20450;-49
2023/03/02 02:02:24;;;;;;;21.97;16.27;;;0.30;99.90;;;;;;5051308;28;20532;-49
2023/03/02 02:04:52;;;;;;;20.27;14.50;;;0.30;99.90;;;;;;5051557;28;20525;-48
2023/03/02 02:07:19;;;;;;;24.83;16.70;;;0.60;99.90;;;;;;5051060;28;20525;-48
2023/03/02 02:09:47;;;;;;;23.27;15.83;;;0.90;99.90;;;;;;5051074;28;20572;-51
2023/03/02 02:12:15;;;;;;;23.70;14.73;;;1.20;99.90;;;;;;5050949;28;20523;-49
2023/03/02 02:14:43;;;;;;;20.50;15.03;;;1.20;99.90;;;;;;5051593;28;20520;-48
2023/03/02 02:17:11;;;;;;;19.23;14.03;;;1.20;99.90;;;;;;5050150;28;20525;-48
2023/03/02 02:19:50;;;;;;;29.00;15.50;;;1.10;99.90;;;;;;5051007;28;20521;-49
2023/03/02 02:22:26;;;;;;;20.90;14.40;;;1.20;99.90;;;;;;5051025;28;20532;-48
2023/03/02 02:24:58;;;;;;;25.30;15.40;;;1.10;99.90;;;;;;5051290;28;20491;-48
2023/03/02 02:27:28;;;;;;;21.57;14.80;;;1.10;99.90;;;;;;5050919;28;20446;-50
2023/03/02 02:29:57;;;;;;;21.73;13.80;;;1.20;99.90;;;;;;5050397;28;20564;-49
2023/03/02 02:32:26;;;;;;;19.00;14.37;;;1.20;99.90;;;;;;5050180;28;20857;-49
2023/03/02 02:34:59;;;;;;;20.93;15.07;;;1.20;99.90;;;;;;5041129;28;20543;-49
2023/03/02 02:37:30;;;;;;;25.00;14.63;;;1.10;99.90;;;;;;5050558;28;20524;-49
2023/03/02 02:39:57;;;;;;;21.37;14.10;;;1.10;99.90;;;;;;5050470;28;20553;-51
2023/03/02 02:42:30;;;;;;;19.20;13.73;;;1.20;99.90;;;;;;5050412;28;20870;-48
2023/03/02 02:45:01;;;;;;;19.57;14.40;;;1.20;99.90;;;;;;5051037;28;20532;-50
2023/03/02 02:47:28;;;;;;;19.10;13.70;;;1.20;99.90;;;;;;5051028;28;20527;-48
2023/03/02 02:49:56;;;;;;;22.67;15.13;;;1.20;99.90;;;;;;5050437;28;20474;-48
2023/03/02 02:52:25;;;;;;;17.13;12.00;;;1.20;99.90;;;;;;5050636;28;20532;-49
2023/03/02 02:54:54;;;;;;;18.03;14.07;;;1.20;99.90;;;;;;5050266;28;20449;-50
2023/03/02 02:57:25;;;;;;;22.93;14.43;;;1.20;99.90;;;;;;5042527;28;20529;-48
2023/03/02 02:59:55;;;;;;;21.90;15.90;;;0.60;99.90;;;;;;5050554;28;20881;-48
2023/03/02 03:02:24;;;;;;;23.60;14.77;;;-0.20;99.90;;;;;;5050565;28;21031;-50
2023/03/02 03:04:51;;;;;;;23.13;15.00;;;-0.50;99.90;;;;;;5050856;28;20529;-49
2023/03/02 03:07:22;;;;;;;20.30;14.70;;;-0.40;99.90;;;;;;5051547;28;20820;-48
2023/03/02 03:09:55;;;;;;;26.00;15.30;;;-0.20;99.90;;;;;;5054262;28;20572;-48
2023/03/02 03:12:25;;;;;;;23.70;15.57;;;-0.10;99.90;;;;;;5042205;28;20528;-48
2023/03/02 03:14:53;;;;;;;23.37;15.07;;;0.10;99.90;;;;;;5054666;28;20529;-49
2023/03/02 03:17:20;;;;;;;25.53;16.40;;;-0.10;99.90;;;;;;5054144;28;20524;-50
2023/03/02 03:19:47;;;;;;;27.17;17.43;;;-0.20;99.90;;;;;;5054684;28;20520;-51
2023/03/02 03:22:16;;;;;;;23.53;15.53;;;0.00;99.90;;;;;;5054195;28;20528;-48
2023/03/02 03:24:45;;;;;;;27.10;15.70;;;0.20;99.90;;;;;;5054589;28;20544;-48
2023/03/02 03:27:15;;;;;;;27.83;17.03;;;-0.40;99.90;;;;;;5053916;28;20541;-49
2023/03/02 03:29:46;;;;;;;27.80;16.97;;;-0.40;99.90;;;;;;5053593;28;20549;-51
2023/03/02 03:32:15;;;;;;;25.77;18.83;;;-0.40;99.90;;;;;;5054295;28;20606;-49
2023/03/02 03:34:42;;;;;;;25.07;20.30;;;-0.40;99.90;;;;;;5054211;28;21035;-50
2023/03/02 03:37:10;;;;;;;27.83;18.80;;;;;;;;;;5054394;28;20516;-48
2023/03/02 03:39:37;;;;;;;35.33;20.53;;;-0.50;99.90;;;;;;5054476;28;20524;-48
2023/03/02 03:42:05;;;;;;;30.70;19.63;;;-0.30;99.90;;;;;;5054288;28;20520;-48
2023/03/02 03:44:32;;;;;;;27.90;18.90;;;0.10;99.90;;;;;;5054620;28;20528;-48
2023/03/02 03:46:59;;;;;;;30.30;18.70;;;0.40;99.90;;;;;;5053809;28;20516;-49
2023/03/02 03:49:28;;;;;;;28.30;19.87;;;0.50;99.90;;;;;;5053975;28;20533;-48
2023/03/02 03:51:55;;;;;;;27.00;18.90;;;0.70;99.90;;;;;;5053664;28;20478;-52
2023/03/02 03:54:21;;;;;;;31.03;18.57;;;0.80;99.90;;;;;;5054116;28;21011;-48
2023/03/02 03:56:49;;;;;;;24.63;17.67;;;0.90;99.90;;;;;;5053490;28;20540;-48
2023/03/02 03:59:19;;;;;;;24.70;18.53;;;0.90;99.90;;;;;;5053579;28;20533;-49
2023/03/02 04:01:49;;;;;;;26.97;18.13;;;0.80;99.90;;;;;;5053186;28;20548;-49
2023/03/02 04:04:23;;;;;;;25.90;16.93;;;0.90;99.90;;;;;;5053916;28;20532;-48
2023/03/02 04:06:52;;;;;;;23.30;16.00;;;0.80;99.90;;;;;;5053779;28;20524;-49
2023/03/02 04:09:19;;;;;;;25.67;17.00;;;0.70;99.90;;;;;;5053117;28;20521;-48
2023/03/02 04:11:48;;;;;;;26.90;17.63;;;0.80;99.90;;;;;;5053491;28;20520;-49
2023/03/02 04:14:16;;;;;;;24.93;16.63;;;0.90;99.90;;;;;;5054051;28;20525;-48
2023/03/02 04:16:44;;;;;;;22.13;16.23;;;0.90;99.90;;;;;;5044942;28;20542;-49
2023/03/02 04:19:11;;;;;;;28.03;16.80;;;0.80;99.90;;;;;;5047791;28;20894;-49
2023/03/02 04:21:40;;;;;;;27.20;16.37;;;0.90;99.90;;;;;;5033823;28;20559;-48
2023/03/02 04:24:09;;;;;;;23.60;17.50;;;0.80;99.90;;;;;;5033739;28;20534;-48
2023/03/02 04:26:37;;;;;;;26.83;17.30;;;0.70;99.90;;;;;;5045743;28;21230;-49
2023/03/02 04:29:05;;;;;;;23.93;16.20;;;0.80;99.90;;;;;;5053106;28;20539;-51
2023/03/02 04:31:32;;;;;;;23.07;16.17;;;0.50;99.90;;;;;;5052692;28;20568;-48
2023/03/02 04:33:59;;;;;;;26.77;17.97;;;0.60;99.90;;;;;;5052913;28;20535;-49
2023/03/02 04:36:26;;;;;;;23.20;16.07;;;0.70;99.90;;;;;;5052814;28;20529;-49
2023/03/02 04:38:53;;;;;;;23.07;16.87;;;0.30;99.90;;;;;;5052621;28;20525;-48
2023/03/02 04:41:22;;;;;;;22.20;16.83;;;-0.10;99.90;;;;;;5053115;28;20549;-48
2023/03/02 04:43:51;;;;;;;26.70;19.00;;;0.00;99.90;;;;;;5052935;28;20826;-51
2023/03/02 04:46:22;;;;;;;32.10;18.50;;;0.10;99.90;;;;;;5052731;28;20453;-49
2023/03/02 04:48:49;;;;;;;27.07;17.30;;;-0.10;99.90;;;;;;5051766;28;20442;-48
2023/03/02 04:51:22;;;;;;;26.83;18.40;;;-0.10;99.90;;;;;;5052004;28;20565;-48
2023/03/02 04:53:49;;;;;;;26.00;16.87;;;0.10;99.90;;;;;;5053183;28;20533;-51
2023/03/02 04:56:16;;;;;;;24.93;17.87;;;0.40;99.90;;;;;;5052791;28;20528;-48
2023/03/02 04:58:45;;;;;;;26.03;18.10;;;-0.10;99.90;;;;;;5051900;28;20533;-50
2023/03/02 05:01:13;;;;;;;26.77;16.47;;;-0.40;99.90;;;;;;5051704;28;20972;-49
2023/03/02 05:03:40;;;;;;;30.30;19.50;;;-0.40;99.90;;;;;;5051665;28;20532;-51
2023/03/02 05:06:07;;;;;;;30.67;18.60;;;-0.50;99.90;;;;;;5052082;28;20995;-48
2023/03/02 05:08:34;;;;;;;27.53;18.47;;;-0.60;99.90;;;;;;5052250;28;20528;-48
2023/03/02 05:11:01;;;;;;;36.63;20.20;;;-0.40;99.90;;;;;;5051924;28;20568;-49
2023/03/02 05:13:28;;;;;;;34.10;19.70;;;-0.30;99.90;;;;;;5052480;28;20528;-49
2023/03/02 05:15:57;;;;;;;37.07;19.30;;;-0.20;99.90;;;;;;5051562;28;20536;-48
2023/03/02 05:18:24;;;;;;;32.83;19.90;;;0.10;99.90;;;;;;5052096;28;20453;-50
2023/03/02 05:20:52;;;;;;;29.07;19.37;;;-0.20;99.90;;;;;;5051580;28;20556;-48
2023/03/02 05:23:23;;;;;;;27.00;19.27;;;-0.10;99.90;;;;;;5051722;28;20529;-48
2023/03/02 05:25:51;;;;;;;34.17;19.57;;;0.30;99.90;;;;;;5051658;28;20936;-49
2023/03/02 05:28:19;;;;;;;26.37;19.13;;;0.50;99.90;;;;;;5051221;28;20529;-48
2023/03/02 05:30:46;;;;;;;29.33;18.63;;;0.60;99.90;;;;;;5050629;28;20564;-48
2023/03/02 05:33:15;;;;;;;31.30;18.37;;;0.60;99.90;;;;;;5052422;28;20528;-48
2023/03/02 05:35:42;;;;;;;31.43;22.00;;;0.50;99.90;;;;;;5051196;28;20533;-50
2023/03/02 05:38:09;;;;;;;26.37;18.30;;;0.50;99.90;;;;;;5051445;28;20533;-48
2023/03/02 05:40:36;;;;;;;30.67;19.20;;;0.60;99.90;;;;;;5055753;28;20543;-48
2023/03/02 05:43:03;;;;;;;25.10;16.90;;;0.70;99.90;;;;;;5057518;28;20537;-49
2023/03/02 05:45:32;;;;;;;27.70;19.87;;;0.70;99.90;;;;;;5053278;28;20446;-50
2023/03/02 05:47:59;;;;;;;28.50;17.47;;;0.60;99.90;;;;;;5055364;28;21014;-48
2023/03/02 05:50:27;;;;;;;27.83;18.40;;;-0.10;99.90;;;;;;5060865;28;20564;-49
2023/03/02 05:52:54;;;;;;;29.60;20.77;;;0.00;99.90;;;;;;5059453;28;20524;-49
2023/03/02 05:55:21;;;;;;;26.00;18.67;;;0.30;99.90;;;;;;5059298;28;20480;-49
2023/03/02 05:57:49;;;;;;;27.10;18.67;;;0.50;99.90;;;;;;5060739;28;20529;-51
2023/03/02 06:00:17;;;;;;;26.00;19.20;;;0.60;99.90;;;;;;5061225;28;20459;-49
2023/03/02 06:02:44;;;;;;;29.43;19.93;;;0.70;99.90;;;;;;5059330;28;20528;-51
2023/03/02 06:05:14;;;;;;;27.13;20.37;;;0.60;99.90;;;;;;5057471;28;20528;-49
2023/03/02 06:07:42;;;;;;;29.23;19.50;;;0.40;99.90;;;;;;5050325;28;20524;-51
2023/03/02 06:10:11;;;;;;;27.97;18.73;;;0.20;99.90;;;;;;5054538;28;20543;-48
2023/03/02 06:12:38;;;;;;;29.17;17.77;;;0.20;99.90;;;;;;5057713;28;20567;-49
2023/03/02 06:15:07;;;;;;;25.60;18.20;;;0.10;99.90;;;;;;5052316;28;20532;-49
2023/03/02 06:17:34;;;;;;;23.70;18.90;;;0.40;99.90;;;;;;5035229;28;20533;-49
2023/03/02 06:20:02;;;;;;;24.47;18.30;;;0.60;99.90;;;;;;5058103;28;20492;-50
2023/03/02 06:22:29;;;;;;;23.67;18.43;;;0.70;99.90;;;;;;5059075;28;20698;-50
2023/03/02 06:24:57;;;;;;;27.40;18.10;;;0.70;99.90;;;;;;5055944;28;20533;-48
2023/03/02 06:27:24;;;;;;;25.10;17.53;;;0.60;99.90;;;;;;5059148;28;20532;-49
2023/03/02 06:29:52;;;;;;;26.13;18.80;;;0.40;99.90;;;;;;5060621;28;20535;-49
2023/03/02 06:32:18;;;;;;;25.13;18.77;;;0.50;99.90;;;;;;5113355;22;20542;-51
2023/03/02 06:34:45;;;;;;;27.60;17.53;;;0.60;99.90;;;;;;5071773;28;20441;-49
2023/03/02 06:37:12;;;;;;;26.10;16.97;;;0.20;99.90;;;;;;5074565;28;20524;-53
2023/03/02 06:39:39;;;;;;;23.27;16.30;;;0.10;99.90;;;;;;5074086;28;20520;-49
2023/03/02 06:42:08;;;;;;;26.63;17.53;;;0.20;99.90;;;;;;5073854;28;20812;-49
2023/03/02 06:44:34;;;;;;;25.20;17.40;;;0.20;99.90;;;;;;5073797;28;20476;-52
2023/03/02 06:47:02;;;;;;;27.30;18.97;;;0.40;99.90;;;;;;5074043;28;20511;-48
2023/03/02 06:49:28;;;;;;;25.77;17.57;;;0.60;99.90;;;;;;5086441;28;20515;-51
2023/03/02 06:51:55;;;;;;;21.30;16.30;;;0.70;99.90;;;;;;5093827;28;20522;-49
2023/03/02 06:54:22;;;;;;;27.17;17.60;;;0.80;99.90;;;;;;5081077;28;20516;-50
2023/03/02 06:56:49;;;;;;;23.87;16.93;;;0.90;99.90;;;;;;5073671;28;20528;-52
2023/03/02 06:59:17;;;;;;;25.13;17.70;;;0.90;99.90;;;;;;5073642;28;20521;-49
2023/03/02 07:01:45;;;;;;;20.87;15.80;;;0.90;99.90;;;;;;5071300;28;20544;-50
2023/03/02 07:04:12;;;;;;;22.03;15.23;;;1.00;99.90;;;;;;5072763;28;20444;-49
2023/03/02 07:06:39;;;;;;;20.83;16.40;;;1.10;99.90;;;;;;5073266;28;20982;-49
2023/03/02 07:09:06;;;;;;;25.30;17.63;;;1.00;99.90;;;;;;5073370;28;20532;-49
2023/03/02 07:11:33;;;;;;;31.57;20.40;;;1.00;99.90;;;;;;5072449;28;21003;-49
2023/03/02 07:14:00;;;;;;;28.27;21.63;;;1.00;99.90;;;;;;5073858;28;20448;-51
2023/03/02 07:16:30;;;;;;;29.87;19.73;;;1.00;99.90;;;;;;5072376;28;20892;-50
2023/03/02 07:18:57;;;;;;;24.40;17.80;;;1.10;99.90;;;;;;5074152;28;20449;-51
2023/03/02 07:21:23;;;;;;;27.90;20.40;;;1.10;99.90;;;;;;5072430;28;21082;-49
2023/03/02 07:23:50;;;;;;;28.30;20.83;;;1.20;99.90;;;;;;5072982;28;20536;-53
2023/03/02 07:26:17;;;;;;;27.77;21.20;;;1.10;99.90;;;;;;5071401;28;20527;-51
2023/03/02 07:28:44;;;;;;;29.33;21.23;;;1.10;99.90;;;;;;5072315;28;20859;-50
2023/03/02 07:31:11;;;;;;;29.30;20.53;;;1.00;99.90;;;;;;5072825;28;20492;-52
2023/03/02 07:33:40;;;;;;;27.30;18.27;;;1.00;99.90;;;;;;5073159;28;20559;-52
2023/03/02 07:36:08;;;;;;;28.50;18.43;;;0.80;99.90;;;;;;5074251;28;20540;-50
2023/03/02 07:38:36;;;;;;;20.10;15.93;;;0.90;99.90;;;;;;5074464;28;20889;-49
2023/03/02 07:41:07;;;;;;;23.67;15.87;;;1.00;99.90;;;;;;5073932;28;20978;-53
2023/03/02 07:43:35;;;;;;;23.57;18.67;;;1.10;99.90;;;;;;5074630;28;20496;-53
2023/03/02 07:46:02;;;;;;;35.20;21.83;;;1.30;99.90;;;;;;5073651;28;20445;-52
2023/03/02 07:48:29;;;;;;;34.67;22.63;;;1.30;99.90;;;;;;5074021;28;20452;-50
2023/03/02 07:50:59;;;;;;;26.93;20.07;;;1.10;99.90;;;;;;5072396;28;20507;-51
2023/03/02 07:53:26;;;;;;;27.70;19.53;;;0.80;99.90;;;;;;5073753;28;20523;-51
2023/03/02 07:55:53;;;;;;;29.40;21.47;;;0.80;99.90;;;;;;5074833;28;20500;-49
2023/03/02 07:58:20;;;;;;;31.80;20.70;;;1.00;99.90;;;;;;5074222;28;20519;-49
2023/03/02 08:00:47;;;;;;;31.17;21.80;;;0.70;99.90;;;;;;5074756;28;20493;-49
2023/03/02 08:03:14;;;;;;;27.63;20.67;;;0.80;99.90;;;;;;5076842;28;20861;-51
2023/03/02 08:05:41;;;;;;;23.80;19.10;;;0.90;99.90;;;;;;5077297;28;20865;-52
2023/03/02 08:08:09;;;;;;;24.47;17.77;;;0.90;99.90;;;;;;5077220;28;20529;-50
2023/03/02 08:10:36;;;;;;;26.67;18.50;;;0.90;99.90;;;;;;5076744;28;20544;-50
2023/03/02 08:13:03;;;;;;;28.80;18.87;;;0.90;99.90;;;;;;5077101;28;20532;-53
2023/03/02 08:15:30;;;;;;;23.20;17.70;;;1.10;99.90;;;;;;5076906;28;20533;-51
2023/03/02 08:17:57;;;;;;;23.80;16.70;;;1.10;99.90;;;;;;5076636;28;20528;-53
2023/03/02 08:20:24;;;;;;;22.07;16.47;;;1.10;99.90;;;;;;5073886;28;20547;-51
2023/03/02 08:22:51;;;;;;;25.23;18.80;;;1.20;99.90;;;;;;5074209;28;20528;-51
2023/03/02 08:25:19;;;;;;;26.60;19.13;;;1.40;99.90;;;;;;5074782;28;20441;-51
2023/03/02 08:27:46;;;;;;;26.47;18.43;;;1.60;99.90;;;;;;5074766;28;20536;-51
2023/03/02 08:30:14;;;;;;;25.70;19.60;;;1.70;99.90;;;;;;5073802;28;20528;-49
2023/03/02 08:32:41;;;;;;;21.43;16.37;;;1.70;99.90;;;;;;5075897;28;20568;-49
2023/03/02 08:35:08;;;;;;;24.03;19.50;;;1.50;99.90;;;;;;5057089;28;20820;-52
2023/03/02 08:37:35;;;;;;;27.70;18.53;;;1.70;99.90;;;;;;5055772;28;20556;-50
2023/03/02 08:40:02;;;;;;;22.43;17.63;;;1.70;99.90;;;;;;5056902;28;20539;-52
2023/03/02 08:42:31;;;;;;;25.27;18.10;;;1.60;99.90;;;;;;5055918;28;20611;-51
2023/03/02 08:44:57;;;;;;;26.40;19.03;;;1.60;99.90;;;;;;5054866;28;20517;-50
2023/03/02 08:47:24;;;;;;;21.53;18.70;;;1.50;99.90;;;;;;5055844;28;20537;-53
2023/03/02 08:49:51;;;;;;;31.30;18.57;;;1.60;99.90;;;;;;5055881;28;20897;-52
2023/03/02 08:52:18;;;;;;;26.83;18.70;;;1.60;99.90;;;;;;5056313;28;20565;-50
2023/03/02 08:54:45;;;;;;;27.80;19.03;;;1.70;99.90;;;;;;5055681;28;20925;-53
2023/03/02 08:57:12;;;;;;;28.00;22.67;;;1.70;99.90;;;;;;5057116;28;20881;-51
2023/03/02 08:59:41;;;;;;;27.20;18.83;;;1.80;99.90;;;;;;5055811;28;20485;-52
2023/03/02 09:02:11;;;;;;;21.70;16.33;;;2.00;99.90;;;;;;5054334;28;20462;-52
2023/03/02 09:04:38;;;;;;;27.80;17.17;;;2.00;99.90;;;;;;5053388;28;20521;-51
2023/03/02 09:07:05;;;;;;;25.57;17.87;;;2.00;99.90;;;;;;5054744;28;20524;-50
2023/03/02 09:09:32;;;;;;;22.63;15.43;;;2.10;99.90;;;;;;5055960;28;20534;-52
2023/03/02 09:11:59;;;;;;;19.30;14.20;;;2.20;99.90;;;;;;5055491;28;20564;-51
2023/03/02 09:14:26;;;;;;;24.80;16.20;;;2.20;99.90;;;;;;5055080;28;20485;-52
2023/03/02 09:16:54;;;;;;;22.83;16.10;;;2.40;99.90;;;;;;5054716;28;20481;-50
2023/03/02 09:19:21;;;;;;;19.60;14.57;;;2.40;99.90;;;;;;5055569;28;20533;-51
2023/03/02 09:21:48;;;;;;;22.83;17.40;;;2.50;99.90;;;;;;5055564;28;20557;-50
2023/03/02 09:24:15;;;;;;;20.23;14.93;;;2.60;99.90;;;;;;5055256;28;20804;-51
2023/03/02 09:26:42;;;;;;;19.10;13.13;;;2.50;99.90;;;;;;5055048;28;20529;-55
2023/03/02 09:29:10;;;;;;;17.70;13.10;;;2.60;99.90;;;;;;5055134;28;20894;-51
2023/03/02 09:31:37;;;;;;;18.77;14.60;;;2.70;99.90;;;;;;5055641;28;20499;-51
2023/03/02 09:34:06;;;;;;;21.50;15.10;;;2.80;99.90;;;;;;5056005;28;20537;-52
2023/03/02 09:36:33;;;;;;;20.20;13.97;;;2.90;99.90;;;;;;5056391;28;20522;-51
2023/03/02 09:39:00;;;;;;;16.30;13.00;;;3.10;99.90;;;;;;5056690;28;20442;-51
2023/03/02 09:42:10;;;;;;;18.37;15.10;;;3.20;99.90;;;;;;5074700;28;20512;-52
2023/03/02 09:44:57;;;;;;;19.20;14.37;;;3.40;99.90;;;;;;5075498;28;20890;-50
2023/03/02 09:47:31;;;;;;;20.30;14.10;;;3.30;99.90;;;;;;5075365;28;20438;-50
2023/03/02 09:50:10;;;;;;;16.53;14.43;;;3.40;99.90;;;;;;5076001;28;20522;-50
2023/03/02 09:52:44;;;;;;;21.17;13.03;;;3.50;99.90;;;;;;5075140;28;20475;-51
2023/03/02 09:55:16;;;;;;;19.33;14.17;;;3.50;99.90;;;;;;5076488;28;20478;-51
2023/03/02 09:57:45;;;;;;;26.47;17.57;;;3.60;99.90;;;;;;5076156;28;20443;-52
2023/03/02 10:00:14;;;;;;;21.13;15.90;;;3.60;99.90;;;;;;5076218;28;20455;-50
2023/03/02 10:02:48;;;;;;;19.17;13.40;;;3.70;99.90;;;;;;5075777;28;20443;-51
2023/03/02 10:05:20;;;;;;;18.80;12.53;;;3.80;99.90;;;;;;5075773;28;20446;-52
2023/03/02 10:07:47;;;;;;;13.37;10.13;;;3.90;99.90;;;;;;5076014;28;20517;-51
2023/03/02 10:10:25;;;;;;;13.07;10.53;;;4.00;99.90;;;;;;5076024;28;20438;-51
2023/03/02 10:13:03;;;;;;;14.73;11.20;;;4.10;99.90;;;;;;5076537;28;20561;-51
2023/03/02 10:15:37;;;;;;;16.77;11.33;;;4.10;99.90;;;;;;5073303;28;21001;-50
2023/03/02 10:18:12;;;;;;;13.77;10.80;;;4.20;99.90;;;;;;5076063;28;21011;-50
2023/03/02 10:20:45;;;;;;;13.10;10.10;;;4.20;99.90;;;;;;5075634;28;20549;-52
2023/03/02 10:23:36;;;;;;;17.07;10.93;;;4.20;99.90;;;;;;5075635;28;20878;-51
2023/03/02 10:26:15;;;;;;;19.33;12.53;;;4.20;99.90;;;;;;5071285;28;20524;-51
2023/03/02 10:28:48;;;;;;;14.03;9.60;;;4.20;99.90;;;;;;5075173;28;20517;-50
2023/03/02 10:31:22;;;;;;;13.27;8.33;;;4.30;99.90;;;;;;5074880;28;20470;-51
2023/03/02 10:33:49;;;;;;;13.20;9.40;;;4.20;99.90;;;;;;5075278;28;21073;-53
2023/03/02 10:36:23;;;;;;;12.97;9.00;;;4.20;99.90;;;;;;5075092;28;20998;-53
2023/03/02 10:38:50;;;;;;;15.27;8.83;;;4.30;99.90;;;;;;5075895;28;20496;-51
2023/03/02 10:41:22;;;;;;;12.63;8.80;;;4.40;99.90;;;;;;5075071;28;20892;-51
2023/03/02 10:43:52;;;;;;;14.97;9.33;;;4.50;99.90;;;;;;5073947;28;20516;-51
2023/03/02 10:46:19;;;;;;;10.67;8.80;;;4.50;99.90;;;;;;5075161;28;20454;-51
2023/03/02 10:48:51;;;;;;;12.83;7.80;;;4.50;99.90;;;;;;5076010;28;20475;-51
2023/03/02 10:51:28;;;;;;;13.13;8.07;;;4.50;99.90;;;;;;5074837;28;20849;-51
2023/03/02 10:54:06;;;;;;;10.63;8.10;;;4.50;99.90;;;;;;5076197;28;20552;-51
2023/03/02 10:56:33;;;;;;;12.30;7.60;;;4.50;99.90;;;;;;5075885;28;20466;-53
2023/03/02 10:59:02;;;;;;;10.87;8.60;;;4.60;99.90;;;;;;5074715;28;21013;-51
2023/03/02 11:01:31;;;;;;;15.00;8.90;;;4.70;99.90;;;;;;5065206;28;20480;-51
2023/03/02 11:03:59;;;;;;;9.80;8.23;;;4.70;99.90;;;;;;5054828;28;21022;-52
2023/03/02 11:06:29;;;;;;;11.40;8.23;;;4.80;99.90;;;;;;5055063;28;20517;-50
2023/03/02 11:09:01;;;;;;;10.37;8.30;;;4.80;99.90;;;;;;5054603;28;21023;-51
2023/03/02 11:11:28;;;;;;;12.37;6.80;;;4.90;99.90;;;;;;5067186;28;20529;-51
2023/03/02 11:13:56;;;;;;;13.03;8.10;;;4.90;99.90;;;;;;5075214;28;20480;-50
2023/03/02 11:16:27;;;;;;;10.33;7.80;;;4.90;99.90;;;;;;5074415;28;20479;-50
2023/03/02 11:18:57;;;;;;;9.47;6.67;;;5.00;99.90;;;;;;5073526;28;20479;-50
2023/03/02 11:21:30;;;;;;;8.73;7.00;;;5.30;99.90;;;;;;5074785;28;20527;-54
2023/03/02 11:24:04;;;;;;;7.30;5.70;;;5.30;99.90;;;;;;5067371;28;20558;-52
2023/03/02 11:26:37;;;;;;;9.67;6.70;;;5.20;99.90;;;;;;5074214;28;20538;-53
2023/03/02 11:29:10;;;;;;;8.60;6.70;;;5.20;99.90;;;;;;5075674;28;20528;-51
2023/03/02 11:31:43;;;;;;;9.40;7.07;;;5.20;99.90;;;;;;5081318;28;20550;-54
2023/03/02 11:34:23;;;;;;;8.10;6.60;;;5.30;99.90;;;;;;5074707;28;20471;-51
2023/03/02 11:37:01;;;;;;;8.13;7.23;;;5.40;99.90;;;;;;5074894;28;20446;-51
2023/03/02 11:39:34;;;;;;;11.53;5.70;;;5.40;99.90;;;;;;5077848;28;20489;-51
2023/03/02 11:42:01;;;;;;;5.33;4.73;;;5.60;99.90;;;;;;5077536;28;20539;-51
2023/03/02 11:44:28;;;;;;;6.53;5.27;;;5.60;99.90;;;;;;5077130;28;20526;-52
2023/03/02 11:47:00;;;;;;;6.77;6.07;;;5.70;99.90;;;;;;5077167;28;20436;-51
2023/03/02 11:49:37;;;;;;;7.93;6.10;;;5.70;99.90;;;;;;5076706;28;21026;-51
2023/03/02 11:52:14;;;;;;;9.10;6.13;;;5.80;99.90;;;;;;5075731;28;20460;-51
2023/03/02 11:54:45;;;;;;;7.90;6.13;;;5.90;99.90;;;;;;5076605;28;20571;-51
2023/03/02 11:57:21;;;;;;;8.70;5.77;;;6.10;99.90;;;;;;5087710;28;20439;-51
2023/03/02 11:59:50;;;;;;;8.37;6.20;;;6.10;99.90;;;;;;5096416;28;20502;-54
2023/03/02 12:02:17;;;;;;;10.67;7.77;;;;;;;;;;5096482;28;20538;-51
2023/03/02 12:04:44;;;;;;;9.63;7.00;;;6.50;99.90;;;;;;5078777;28;20520;-53
2023/03/02 12:07:22;;;;;;;10.67;6.47;;;6.50;99.90;;;;;;5074890;28;20523;-52
2023/03/02 12:10:02;;;;;;;6.43;4.87;;;6.50;99.90;;;;;;5074434;28;20440;-50
2023/03/02 12:12:40;;;;;;;7.77;4.63;;;6.60;99.90;;;;;;5073665;28;20564;-55
2023/03/02 12:15:27;;;;;;;9.17;5.07;;;6.70;99.90;;;;;;5074071;28;21009;-54
2023/03/02 12:17:54;;;;;;;7.00;4.70;;;6.80;99.90;;;;;;5074621;28;20479;-54
2023/03/02 12:20:27;;;;;;;5.60;4.00;;;6.90;99.90;;;;;;5074370;28;20859;-54
2023/03/02 12:23:07;;;;;;;8.03;3.63;;;7.10;99.90;;;;;;5073662;28;20527;-52
2023/03/02 12:25:41;;;;;;;5.47;4.07;;;7.10;99.90;;;;;;5076075;28;20440;-51
2023/03/02 12:28:26;;;;;;;4.10;2.70;;;6.90;99.90;;;;;;5076285;28;20479;-51
2023/03/02 12:30:57;;;;;;;5.20;3.37;;;6.90;99.90;;;;;;5074966;28;20460;-52
2023/03/02 12:33:24;;;;;;;3.80;2.70;;;7.00;99.90;;;;;;5096412;22;20496;-83
2023/03/02 12:36:01;;;;;;;3.97;2.50;;;7.00;99.90;;;;;;5072477;28;20528;-83
2023/03/02 12:38:32;;;;;;;9.53;5.77;;;7.00;99.90;;;;;;5072686;28;20553;-84
2023/03/02 12:41:40;;;;;;;38.40;20.00;;;7.20;99.90;;;;;;5072483;28;20468;-84
2023/03/02 12:44:26;;;;;;;4.23;3.10;;;7.10;99.90;;;;;;5071892;28;20451;-83
2023/03/02 12:46:55;;;;;;;3.80;3.07;;;7.30;99.90;;;;;;5073083;28;20444;-84
2023/03/02 12:49:45;;;;;;;3.17;2.87;;;7.10;99.90;;;;;;5072697;28;20525;-83
2023/03/02 12:52:33;;;;;;;3.40;2.60;;;7.30;99.90;;;;;;5075765;28;20824;-83